createdAt,value
2023-01-08T00:05:04.990Z,12.30
2023-01-08T00:23:54.160Z,12.20
2023-01-08T00:30:02.710Z,12.20
2023-01-08T00:42:50.194Z,12.10
2023-01-08T00:48:01.862Z,12.10
2023-01-08T00:53:40.000Z,12.10
2023-01-08T00:59:36.483Z,12.10
2023-01-08T01:05:24.777Z,12.10
2023-01-08T01:11:18.167Z,12.10
2023-01-08T01:23:27.344Z,12.10
2023-01-08T01:29:26.491Z,12.20
2023-01-08T01:35:34.700Z,12.20
2023-01-08T01:41:32.018Z,12.20
2023-01-08T01:53:51.121Z,12.30
2023-01-08T02:00:03.208Z,12.30
2023-01-08T02:06:24.706Z,12.30
2023-01-08T02:12:26.341Z,12.30
2023-01-08T02:18:24.049Z,12.40
2023-01-08T02:36:33.618Z,12.40
2023-01-08T02:55:50.602Z,12.40
2023-01-08T05:09:30.158Z,12.00
2023-01-08T05:14:33.181Z,12.10
2023-01-08T05:19:38.083Z,12.00
2023-01-08T05:30:28.107Z,12.00
2023-01-08T05:35:51.112Z,12.00
2023-01-08T05:41:14.134Z,12.00
2023-01-08T05:46:39.166Z,12.00
2023-01-08T05:52:02.165Z,11.90
2023-01-08T05:57:25.174Z,11.90
2023-01-08T06:02:50.161Z,11.90
2023-01-08T06:08:13.131Z,11.90
2023-01-08T06:13:36.165Z,11.80
2023-01-08T06:19:01.154Z,11.80
2023-01-08T06:24:24.184Z,11.80
2023-01-08T06:29:47.170Z,11.80
2023-01-08T06:35:12.183Z,11.80
2023-01-08T06:40:35.171Z,11.80
2023-01-08T06:45:58.180Z,11.80
2023-01-08T06:51:23.175Z,11.70
2023-01-08T06:56:53.768Z,11.70
2023-01-08T07:02:20.460Z,11.70
2023-01-08T07:07:45.162Z,11.60
2023-01-08T07:13:08.186Z,11.60
2023-01-08T07:18:31.177Z,11.60
2023-01-08T07:23:57.193Z,11.60
2023-01-08T07:29:20.215Z,11.60
2023-01-08T07:34:43.194Z,11.50
2023-01-08T07:40:08.203Z,11.50
2023-01-08T07:45:31.239Z,11.60
2023-01-08T07:50:54.205Z,11.50
2023-01-08T07:56:19.233Z,11.50
2023-01-08T08:01:42.334Z,11.50
2023-01-08T08:07:05.206Z,11.50
2023-01-08T08:12:29.215Z,11.50
2023-01-08T08:17:53.216Z,11.60
2023-01-08T08:23:17.220Z,11.60
2023-01-08T08:28:42.233Z,11.60
2023-01-08T08:34:05.269Z,11.60
2023-01-08T08:39:28.228Z,11.60
2023-01-08T08:44:53.243Z,11.60
2023-01-08T08:50:17.233Z,11.50
2023-01-08T08:55:40.236Z,11.50
2023-01-08T09:01:10.281Z,11.50
2023-01-08T09:06:34.253Z,11.50
2023-01-08T09:11:57.236Z,11.50
2023-01-08T09:17:22.266Z,11.50
2023-01-08T09:22:45.263Z,11.50
2023-01-08T09:28:13.268Z,11.50
2023-01-08T09:33:38.272Z,11.40
2023-01-08T09:39:01.284Z,11.40
2023-01-08T09:44:28.299Z,11.50
2023-01-08T09:49:58.314Z,11.40
2023-01-08T09:55:23.292Z,11.40
2023-01-08T10:00:49.305Z,11.50
2023-01-08T10:06:18.312Z,11.50
2023-01-08T10:11:47.317Z,11.50
2023-01-08T10:17:15.275Z,11.50
2023-01-08T10:22:46.295Z,11.50
2023-01-08T10:28:11.296Z,11.50
2023-01-08T10:33:38.291Z,11.50
2023-01-08T10:39:06.319Z,11.50
2023-01-08T10:44:32.326Z,11.50
2023-01-08T10:49:55.341Z,11.50
2023-01-08T10:55:38.299Z,11.50
2023-01-08T11:01:01.362Z,11.60
2023-01-08T11:06:32.308Z,11.50
2023-01-08T11:11:57.327Z,11.60
2023-01-08T11:17:40.352Z,11.60
2023-01-08T11:23:12.360Z,11.60
2023-01-08T11:28:46.336Z,11.70
2023-01-08T11:39:47.323Z,11.90
2023-01-08T11:45:25.393Z,12.00
2023-01-08T11:50:57.568Z,12.10
2023-01-08T11:56:33.386Z,12.10
2023-01-08T12:02:09.369Z,12.10
2023-01-08T12:07:38.596Z,12.10
2023-01-08T12:13:12.361Z,12.00
2023-01-08T12:18:50.467Z,12.00
2023-01-08T12:24:26.376Z,11.90
2023-01-08T12:30:03.367Z,11.90
2023-01-08T12:35:33.385Z,11.90
2023-01-08T12:40:59.640Z,11.90
2023-01-08T12:46:23.762Z,12.00
2023-01-08T12:51:53.701Z,12.00
2023-01-08T12:57:21.395Z,12.10
2023-01-08T13:02:50.421Z,12.10
2023-01-08T13:08:30.408Z,12.20
2023-01-08T13:13:56.752Z,12.20
2023-01-08T13:19:32.368Z,12.20
2023-01-08T13:24:57.484Z,12.30
2023-01-08T13:30:44.388Z,12.30
2023-01-08T13:36:21.437Z,12.30
2023-01-08T13:41:52.410Z,12.30
2023-01-08T13:47:18.416Z,12.40
2023-01-08T13:52:48.445Z,12.50
2023-01-08T13:58:15.396Z,12.60
2023-01-08T14:03:40.403Z,12.50
2023-01-08T14:09:05.451Z,12.50
2023-01-08T14:14:32.479Z,12.50
2023-01-08T14:19:55.437Z,12.50
2023-01-08T14:25:26.455Z,12.50
2023-01-08T14:30:51.450Z,12.50
2023-01-08T14:36:15.439Z,12.50
2023-01-08T14:42:01.470Z,12.40
2023-01-08T14:47:27.458Z,12.40
2023-01-08T14:52:55.456Z,12.40
2023-01-08T14:58:23.464Z,12.40
2023-01-08T15:03:51.475Z,12.40
2023-01-08T15:09:29.511Z,12.40
2023-01-08T15:14:52.455Z,12.40
2023-01-08T15:20:24.475Z,12.30
2023-01-08T15:25:47.474Z,12.30
2023-01-08T15:31:10.523Z,12.30
2023-01-08T15:36:35.524Z,12.30
2023-01-08T15:42:16.478Z,12.30
2023-01-08T15:47:39.679Z,12.20
2023-01-08T15:53:04.748Z,12.20
2023-01-08T15:58:29.642Z,12.20
2023-01-08T16:03:52.503Z,12.10
2023-01-08T16:09:17.537Z,12.10
2023-01-08T16:14:44.525Z,12.10
2023-01-08T16:20:07.505Z,12.10
2023-01-08T16:25:32.495Z,12.00
2023-01-08T16:30:55.507Z,12.00
2023-01-08T16:36:18.517Z,12.00
2023-01-08T16:41:43.583Z,11.90
2023-01-08T16:47:07.601Z,12.00
2023-01-08T16:52:30.528Z,11.90
2023-01-08T16:57:55.655Z,11.90
2023-01-08T17:03:19.558Z,11.80
2023-01-08T17:08:46.557Z,11.80
2023-01-08T17:14:11.529Z,11.70
2023-01-08T17:19:34.544Z,11.60
2023-01-08T17:24:57.547Z,11.60
2023-01-08T17:30:22.539Z,11.50
2023-01-08T18:20:06.618Z,11.50
2023-01-08T18:25:29.570Z,11.50
2023-01-08T19:45:19.635Z,11.60
2023-01-08T19:50:46.641Z,11.60
2023-01-08T19:56:09.631Z,11.70
2023-01-08T20:07:12.653Z,11.70
2023-01-08T20:12:35.663Z,11.70
2023-01-08T20:17:58.636Z,11.70
2023-01-08T20:23:23.660Z,11.70
2023-01-08T20:28:46.650Z,11.60
2023-01-08T20:34:10.643Z,11.60
2023-01-08T20:39:35.649Z,11.60
2023-01-08T20:44:58.654Z,11.60
2023-01-08T20:50:21.693Z,11.60
2023-01-08T20:55:46.692Z,11.60
2023-01-08T21:01:14.725Z,11.50
2023-01-08T21:06:40.669Z,11.50
2023-01-08T21:12:05.685Z,11.50
2023-01-08T21:17:28.674Z,11.50
2023-01-08T21:22:52.703Z,11.50
2023-01-08T21:28:17.730Z,11.50
2023-01-08T21:33:40.698Z,11.60
2023-01-08T21:39:03.701Z,11.60
2023-01-08T21:44:47.679Z,11.60
2023-01-08T21:50:10.706Z,11.60
2023-01-08T21:55:33.730Z,11.60
2023-01-08T22:00:58.763Z,11.60
2023-01-08T22:06:21.716Z,11.60
2023-01-08T22:11:44.700Z,11.60
2023-01-08T22:17:10.771Z,11.50
2023-01-08T22:22:33.712Z,11.50
2023-01-08T22:28:00.738Z,11.40
2023-01-08T22:33:25.759Z,11.40
2023-01-08T22:38:48.717Z,11.40
2023-01-08T22:44:11.730Z,11.30
2023-01-08T22:49:36.734Z,11.30
2023-01-08T22:55:01.737Z,11.30
2023-01-08T23:00:26.742Z,11.20
2023-01-08T23:05:51.770Z,11.20
2023-01-08T23:11:15.732Z,11.10
2023-01-08T23:16:38.890Z,11.10
2023-01-08T23:22:03.753Z,11.00
2023-01-08T23:27:26.753Z,11.00
2023-01-08T23:32:49.788Z,11.00
2023-01-08T23:38:14.746Z,10.90
2023-01-08T23:43:37.771Z,10.90
2023-01-08T23:49:00.752Z,10.90
2023-01-08T23:54:25.777Z,11.00
2023-01-08T23:59:48.777Z,11.00
